Time;durP1;ratioP1;P1;durP2;ratioP2;P2;SDS_P1;SDS_P2;PMS_P1;PMS_P2;Temp;Humidity;BMP_temperature;BMP_pressure;BME280_temperature;BME280_humidity;BME280_pressure;Samples;Min_cycle;Max_cycle;Signal;HPM_P1;HPM_P2
2024/01/24 00:00:33;;;;;;;;;;;7.20;99.90;;;;;;5072524;28;19909;-73
2024/01/24 00:02:59;;;;;;;;;;;7.10;99.90;;;;;;5073095;28;19908;-75
2024/01/24 00:05:25;;;;;;;;;;;7.20;99.90;;;;;;5085294;28;19916;-74
2024/01/24 00:07:50;;;;;;;;;;;7.10;99.90;;;;;;5087210;28;20293;-73
2024/01/24 00:10:16;;;;;;;;;;;7.20;99.90;;;;;;5085912;28;19920;-75
2024/01/24 00:12:41;;;;;;;;;;;7.30;99.90;;;;;;5086125;28;19911;-75
2024/01/24 00:15:07;;;;;;;;;;;7.40;99.90;;;;;;5081785;28;20377;-75
2024/01/24 00:17:32;;;;;;;;;;;7.30;99.90;;;;;;5091382;28;20060;-72
2024/01/24 00:19:58;;;;;;;;;;;7.40;99.90;;;;;;5098108;28;19922;-75
2024/01/24 00:22:23;;;;;;;;;;;7.50;99.90;;;;;;5087181;28;19959;-72
2024/01/24 00:24:49;;;;;;;;;;;7.60;99.90;;;;;;5091012;28;19965;-71
2024/01/24 00:27:14;;;;;;;;;;;7.60;99.90;;;;;;5074266;28;19934;-74
2024/01/24 00:29:40;;;;;;;;;;;7.60;99.90;;;;;;5078762;28;20113;-74
2024/01/24 00:32:05;;;;;;;;;;;7.50;99.90;;;;;;5092708;28;19915;-74
2024/01/24 00:34:30;;;;;;;;;;;7.50;99.90;;;;;;5089031;28;19923;-75
2024/01/24 00:38:03;;;;;;;;;;;7.50;99.90;;;;;;5134324;27;19912;-75
2024/01/24 00:40:29;;;;;;;;;;;7.50;99.90;;;;;;5135034;27;19939;-72
2024/01/24 00:42:54;;;;;;;;;;;7.40;99.90;;;;;;5125823;27;20618;-74
2024/01/24 00:45:19;;;;;;;;;;;7.50;99.90;;;;;;5111615;27;19908;-75
2024/01/24 00:47:45;;;;;;;;;;;7.60;99.90;;;;;;5131951;27;19916;-75
2024/01/24 00:50:11;;;;;;;;;;;7.70;99.90;;;;;;5124215;27;20345;-72
2024/01/24 00:55:11;;;;;;;;;;;7.50;99.90;;;;;;5094210;28;19920;-73
2024/01/24 00:57:36;;;;;;;;;;;7.70;99.90;;;;;;5071970;28;19955;-75
2024/01/24 01:00:03;;;;;;;;;;;7.70;99.90;;;;;;5073202;28;19952;-73
2024/01/24 01:02:29;;;;;;;;;;;7.60;99.90;;;;;;5074371;28;19947;-75
2024/01/24 01:04:54;;;;;;;;;;;7.50;99.90;;;;;;5071653;28;19916;-75
2024/01/24 01:07:20;;;;;;;;;;;7.70;99.90;;;;;;5068444;28;19958;-73
2024/01/24 01:09:45;;;;;;;;;;;7.70;99.90;;;;;;5072980;28;20428;-72
2024/01/24 01:12:11;;;;;;;;;;;7.60;99.90;;;;;;5074174;28;19913;-75
2024/01/24 01:14:37;;;;;;;;;;;7.60;99.90;;;;;;5072511;28;19918;-73
2024/01/24 01:17:03;;;;;;;;;;;7.70;99.90;;;;;;5074350;28;19913;-75
2024/01/24 01:19:28;;;;;;;;;;;7.70;99.90;;;;;;5071928;28;19931;-71
2024/01/24 01:21:54;;;;;;;;;;;7.70;99.90;;;;;;5071555;28;19975;-75
2024/01/24 02:03:28;;;;;;;;;;;7.40;99.90;;;;;;5093428;28;20374;-75
2024/01/24 02:05:54;;;;;;;;;;;7.70;99.90;;;;;;5080718;28;19949;-75
2024/01/24 02:08:20;;;;;;;;;;;7.50;99.90;;;;;;5070360;28;19913;-74
2024/01/24 02:10:45;;;;;;;;;;;7.40;99.90;;;;;;5084500;28;19910;-75
2024/01/24 02:13:11;;;;;;;;;;;7.30;99.90;;;;;;5081809;28;20075;-75
2024/01/24 02:15:37;;;;;;;;;;;7.50;99.90;;;;;;5079638;28;19909;-75
2024/01/24 02:18:03;;;;;;;;;;;7.60;99.90;;;;;;5079896;28;19909;-75
2024/01/24 02:20:29;;;;;;;;;;;7.30;99.90;;;;;;5087895;28;20493;-75
2024/01/24 02:22:54;;;;;;;;;;;7.40;99.90;;;;;;5068733;28;19912;-73
2024/01/24 02:25:19;;;;;;;;;;;7.20;99.90;;;;;;5073092;28;19920;-75
2024/01/24 02:27:45;;;;;;;;;;;7.00;99.90;;;;;;5075572;28;19912;-75
2024/01/24 02:30:11;;;;;;;;;;;7.00;99.90;;;;;;5075913;28;20450;-73
2024/01/24 02:32:38;;;;;;;;;;;7.00;99.90;;;;;;5073061;28;19984;-75
2024/01/24 02:35:04;;;;;;;;;;;7.10;99.90;;;;;;5076091;28;19909;-75
2024/01/24 02:37:30;;;;;;;;;;;6.90;99.90;;;;;;5077351;28;19909;-74
2024/01/24 02:39:55;;;;;;;;;;;6.70;99.90;;;;;;5063179;28;20368;-74
2024/01/24 02:42:21;;;;;;;;;;;6.70;99.90;;;;;;5069013;28;19924;-75
2024/01/24 02:44:46;;;;;;;;;;;6.80;99.90;;;;;;5073541;28;20401;-75
2024/01/24 02:47:12;;;;;;;;;;;6.90;99.90;;;;;;5085586;28;19915;-74
2024/01/24 02:49:38;;;;;;;;;;;6.60;99.90;;;;;;5079453;28;19947;-76
2024/01/24 02:52:04;;;;;;;;;;;6.60;99.90;;;;;;5060874;28;19917;-76
2024/01/24 02:54:29;;;;;;;;;;;7.00;99.90;;;;;;5060443;28;19909;-75
2024/01/24 02:56:54;;;;;;;;;;;6.80;99.90;;;;;;5071333;28;20290;-75
2024/01/24 02:59:20;;;;;;;;;;;6.70;99.90;;;;;;5058879;28;20268;-72
2024/01/24 03:01:45;;;;;;;;;;;6.80;99.90;;;;;;5057846;28;20004;-75
2024/01/24 03:04:11;;;;;;;;;;;9.00;99.90;;;;;;5062009;28;19913;-74
2024/01/24 03:06:37;;;;;;;;;;;6.60;99.90;;;;;;5059479;28;20370;-71
2024/01/24 03:09:03;;;;;;;;;;;6.60;99.90;;;;;;5066273;28;19909;-75
2024/01/24 03:11:28;;;;;;;;;;;6.70;99.90;;;;;;5071363;28;19909;-75
2024/01/24 03:13:54;;;;;;;;;;;6.40;99.90;;;;;;5080317;28;19915;-73
2024/01/24 03:16:19;;;;;;;;;;;;;;;;;;5058037;28;19932;-72
2024/01/24 03:18:45;;;;;;;;;;;6.60;99.90;;;;;;5075318;28;19965;-75
2024/01/24 03:21:14;;;;;;;;;;;6.10;99.90;;;;;;5072304;28;19912;-73
2024/01/24 03:23:40;;;;;;;;;;;6.30;99.90;;;;;;5065315;28;20348;-74
2024/01/24 03:26:06;;;;;;;;;;;6.30;99.90;;;;;;5066596;28;20376;-75
2024/01/24 03:28:32;;;;;;;;;;;6.50;99.90;;;;;;5073631;28;19948;-75
